createdAt,value
2018-05-18T00:01:38.423Z,8.30
2018-05-18T00:04:07.308Z,8.30
2018-05-18T00:06:42.291Z,8.30
2018-05-18T00:09:10.926Z,8.30
2018-05-18T00:11:44.653Z,8.30
2018-05-18T00:14:13.527Z,8.40
2018-05-18T00:16:54.811Z,8.40
2018-05-18T00:19:24.132Z,8.40
2018-05-18T00:21:52.616Z,8.40
2018-05-18T00:24:21.135Z,8.40
2018-05-18T00:26:52.038Z,8.40
2018-05-18T00:29:21.272Z,8.60
2018-05-18T00:31:54.570Z,8.60
2018-05-18T00:34:23.426Z,8.60
2018-05-18T00:39:25.409Z,8.60
2018-05-18T00:44:28.676Z,8.50
2018-05-18T00:47:01.905Z,8.50
2018-05-18T00:49:30.655Z,8.50
2018-05-18T00:52:04.748Z,8.40
2018-05-18T00:57:07.029Z,8.50
2018-05-18T01:24:49.900Z,8.40
2018-05-18T01:27:22.403Z,8.30
2018-05-18T01:29:51.298Z,8.30
2018-05-18T01:32:25.234Z,8.40
2018-05-18T01:34:54.495Z,8.40
2018-05-18T01:37:27.711Z,8.40
2018-05-18T01:47:39.983Z,8.40
2018-05-18T01:50:08.607Z,8.50
2018-05-18T01:55:08.509Z,8.50
2018-05-18T01:57:37.391Z,8.50
2018-05-18T02:00:06.301Z,8.60
2018-05-18T02:02:39.533Z,8.50
2018-05-18T02:07:41.419Z,8.50
2018-05-18T02:15:12.274Z,8.60
2018-05-18T02:17:45.481Z,8.50
2018-05-18T02:22:48.184Z,8.40
2018-05-18T02:25:17.811Z,8.30
2018-05-18T02:27:59.543Z,8.50
2018-05-18T02:30:28.400Z,8.40
2018-05-18T02:32:57.248Z,8.40
2018-05-18T02:35:26.098Z,8.40
2018-05-18T02:37:55.917Z,8.50
2018-05-18T02:40:24.420Z,8.50
2018-05-18T02:43:07.062Z,8.50
2018-05-18T02:45:36.262Z,8.50
2018-05-18T02:48:05.886Z,8.40
2018-05-18T02:50:34.423Z,8.30
2018-05-18T02:53:04.752Z,8.40
2018-05-18T02:55:34.412Z,8.50
2018-05-18T03:00:34.147Z,8.50
2018-05-18T03:03:03.079Z,8.40
2018-05-18T03:05:35.942Z,8.50
2018-05-18T03:08:06.673Z,8.50
2018-05-18T03:10:37.121Z,8.40
2018-05-18T03:13:06.035Z,8.40
2018-05-18T03:15:34.908Z,8.40
2018-05-18T03:20:33.647Z,8.30
2018-05-18T03:23:03.180Z,8.30
2018-05-18T03:25:31.663Z,8.30
2018-05-18T03:30:30.163Z,8.40
2018-05-18T03:32:59.789Z,8.30
2018-05-18T03:35:29.767Z,8.20
2018-05-18T03:38:00.161Z,8.20
2018-05-18T03:40:29.751Z,8.20
2018-05-18T03:42:59.763Z,8.20
2018-05-18T03:47:58.225Z,8.10
2018-05-18T03:50:31.167Z,8.20
2018-05-18T03:52:59.903Z,8.20
2018-05-18T03:55:40.742Z,8.20
2018-05-18T03:58:09.917Z,8.20
2018-05-18T04:00:39.582Z,8.20
2018-05-18T04:04:16.678Z,8.20
2018-05-18T04:06:57.538Z,8.30
2018-05-18T04:09:27.058Z,8.20
2018-05-18T04:14:26.170Z,8.30
2018-05-18T04:16:55.150Z,8.20
2018-05-18T04:19:23.655Z,8.20
2018-05-18T04:21:52.927Z,7.90
2018-05-18T04:24:22.445Z,8.30
2018-05-18T04:26:51.320Z,7.60
2018-05-18T04:29:20.164Z,8.50
2018-05-18T04:31:50.655Z,8.50
2018-05-18T04:34:19.910Z,8.50
2018-05-18T04:36:52.758Z,8.70
2018-05-18T04:39:22.051Z,7.70
2018-05-18T04:41:55.287Z,8.60
2018-05-18T04:44:23.782Z,8.50
2018-05-18T04:46:59.246Z,8.60
2018-05-18T04:49:27.708Z,8.60
2018-05-18T04:57:03.705Z,8.50
2018-05-18T04:59:33.064Z,8.60
2018-05-18T05:02:06.368Z,8.60
2018-05-18T05:04:36.389Z,8.70
2018-05-18T05:07:09.958Z,8.60
2018-05-18T05:12:14.356Z,8.60
2018-05-18T05:14:43.189Z,8.50
2018-05-18T05:17:14.651Z,8.60
2018-05-18T05:19:43.540Z,8.60
2018-05-18T05:22:24.790Z,8.60
2018-05-18T05:24:54.082Z,8.50
2018-05-18T05:27:24.490Z,8.60
2018-05-18T05:32:23.556Z,9.80
2018-05-18T05:34:52.061Z,8.30
2018-05-18T05:37:23.197Z,8.30
2018-05-18T05:39:51.711Z,8.30
2018-05-18T05:42:33.773Z,8.40
2018-05-18T05:45:02.680Z,8.50
2018-05-18T05:47:31.588Z,8.50
2018-05-18T05:50:01.266Z,8.50
2018-05-18T05:52:30.143Z,8.50
2018-05-18T05:54:58.667Z,8.50
2018-05-18T05:57:31.613Z,8.50
2018-05-18T06:00:00.183Z,8.50
2018-05-18T06:02:34.384Z,8.60
2018-05-18T06:05:04.193Z,8.90
2018-05-18T06:07:46.057Z,8.90
2018-05-18T06:12:45.082Z,9.40
2018-05-18T06:15:24.655Z,9.50
2018-05-18T06:17:53.488Z,9.90
2018-05-18T06:20:21.999Z,8.40
2018-05-18T06:22:51.667Z,11.50
2018-05-18T06:25:20.408Z,13.20
2018-05-18T06:30:18.536Z,11.40
2018-05-18T06:32:49.327Z,11.10
2018-05-18T06:35:18.749Z,11.00
2018-05-18T06:38:00.472Z,10.90
2018-05-18T06:40:29.202Z,12.00
2018-05-18T06:42:58.824Z,12.80
2018-05-18T06:45:28.089Z,12.30
2018-05-18T06:50:26.730Z,11.30
2018-05-18T06:52:59.879Z,11.10
2018-05-18T06:55:28.639Z,11.10
2018-05-18T06:58:03.214Z,10.90
2018-05-18T07:03:05.439Z,10.40
2018-05-18T07:05:35.109Z,10.90
2018-05-18T07:08:09.065Z,12.50
2018-05-18T07:10:37.716Z,12.80
2018-05-18T07:13:11.974Z,12.60
2018-05-18T07:15:42.280Z,12.80
2018-05-18T07:18:14.783Z,12.90
2018-05-18T07:23:17.860Z,12.20
2018-05-18T07:30:47.150Z,12.60
2018-05-18T07:33:19.908Z,13.50
2018-05-18T07:35:48.874Z,15.00
2018-05-18T07:38:23.101Z,16.00
2018-05-18T07:43:23.993Z,14.80
2018-05-18T07:45:53.512Z,14.50
2018-05-18T07:50:55.198Z,13.20
2018-05-18T07:58:36.750Z,14.10
2018-05-18T08:06:04.740Z,13.90
2018-05-18T08:08:37.590Z,13.60
2018-05-18T08:11:07.238Z,13.10
2018-05-18T08:13:40.873Z,13.40
2018-05-18T08:28:55.483Z,14.70
2018-05-18T08:36:23.420Z,14.10
2018-05-18T08:38:52.391Z,14.10
2018-05-18T08:43:54.311Z,14.60
2018-05-18T08:46:24.443Z,15.40
2018-05-18T08:53:58.439Z,18.30
2018-05-18T08:56:27.716Z,19.10
2018-05-18T08:59:03.602Z,20.40
2018-05-18T09:01:33.486Z,21.30
2018-05-18T09:04:05.362Z,19.90
2018-05-18T09:06:34.853Z,19.80
2018-05-18T09:09:16.079Z,20.00
2018-05-18T09:11:45.005Z,19.70
2018-05-18T09:14:15.555Z,18.90
2018-05-18T09:16:45.338Z,18.40
2018-05-18T09:19:14.432Z,18.30
2018-05-18T09:21:45.194Z,20.20
2018-05-18T09:24:16.049Z,19.80
2018-05-18T09:26:46.719Z,18.60
2018-05-18T09:29:18.532Z,17.40
2018-05-18T09:31:48.615Z,16.60
2018-05-18T09:34:19.684Z,17.40
2018-05-18T09:36:49.393Z,16.10
2018-05-18T09:39:21.666Z,15.80
2018-05-18T09:41:50.607Z,15.40
2018-05-18T09:49:26.148Z,15.50
2018-05-18T09:54:37.980Z,16.30
2018-05-18T09:57:06.779Z,16.50
2018-05-18T10:04:34.944Z,15.40
2018-05-18T10:07:04.746Z,15.50
2018-05-18T10:09:36.490Z,15.50
2018-05-18T10:12:05.510Z,15.00
2018-05-18T10:14:47.071Z,15.20
2018-05-18T10:17:17.369Z,14.90
2018-05-18T10:19:47.437Z,15.20
2018-05-18T10:24:47.283Z,14.90
2018-05-18T10:27:16.611Z,14.80
2018-05-18T10:29:49.093Z,13.70
2018-05-18T10:32:19.109Z,14.00
2018-05-18T10:34:51.335Z,15.10
2018-05-18T10:37:20.174Z,15.70
2018-05-18T10:42:22.334Z,15.00
2018-05-18T10:44:57.169Z,15.20
2018-05-18T11:00:36.766Z,15.60
2018-05-18T11:03:05.923Z,16.00
2018-05-18T11:08:18.381Z,16.10
2018-05-18T11:10:46.988Z,15.90
2018-05-18T11:23:18.101Z,15.30
2018-05-18T11:25:47.690Z,15.20
2018-05-18T11:28:20.800Z,15.40
2018-05-18T11:33:22.436Z,15.90
2018-05-18T11:38:24.164Z,16.00
2018-05-18T11:40:53.824Z,15.50
2018-05-18T11:43:25.888Z,15.20
2018-05-18T11:45:55.203Z,15.60
2018-05-18T11:48:27.896Z,15.90
2018-05-18T11:50:57.192Z,15.70
2018-05-18T11:53:30.346Z,15.80
2018-05-18T11:58:41.178Z,15.90
2018-05-18T12:08:38.848Z,15.70
2018-05-18T12:11:07.773Z,16.00
2018-05-18T12:13:39.579Z,15.70
2018-05-18T12:16:09.755Z,15.90
2018-05-18T12:18:42.186Z,15.70
2018-05-18T12:21:12.301Z,16.00
2018-05-18T12:28:57.559Z,16.00
2018-05-18T12:33:56.732Z,15.90
2018-05-18T12:36:25.740Z,15.90
2018-05-18T12:38:54.571Z,15.80
2018-05-18T12:41:23.171Z,16.00
2018-05-18T12:44:05.890Z,16.40
2018-05-18T12:46:34.784Z,16.60
2018-05-18T12:51:33.663Z,16.50
2018-05-18T12:56:34.304Z,16.50
2018-05-18T12:59:06.308Z,16.30
2018-05-18T13:06:36.917Z,17.10
2018-05-18T13:14:14.126Z,17.00
2018-05-18T13:19:16.294Z,16.70
2018-05-18T13:24:46.891Z,16.80
2018-05-18T13:29:47.964Z,16.70
2018-05-18T13:32:29.763Z,17.00
2018-05-18T13:34:59.045Z,16.60
2018-05-18T13:49:57.566Z,16.60
2018-05-18T13:52:39.611Z,16.60
2018-05-18T14:00:08.252Z,16.90
2018-05-18T14:02:37.542Z,16.90
2018-05-18T14:07:37.398Z,16.90
2018-05-18T14:12:40.263Z,17.00
2018-05-18T14:15:09.659Z,17.20
2018-05-18T14:17:50.583Z,17.20
2018-05-18T14:22:50.479Z,17.30
2018-05-18T14:25:20.604Z,17.50
2018-05-18T14:30:18.756Z,17.40
2018-05-18T14:37:55.390Z,17.20
2018-05-18T14:40:25.117Z,17.20
2018-05-18T14:42:56.834Z,17.30
2018-05-18T14:45:25.852Z,17.30
2018-05-18T14:48:07.713Z,17.40
2018-05-18T14:53:07.373Z,17.20
2018-05-18T14:55:37.109Z,17.30
2018-05-18T14:58:06.871Z,17.10
2018-05-18T15:03:08.503Z,17.40
2018-05-18T15:05:37.824Z,17.70
2018-05-18T15:08:19.872Z,18.10
2018-05-18T15:10:50.376Z,17.70
2018-05-18T15:18:21.025Z,17.70
2018-05-18T15:20:49.567Z,17.40
2018-05-18T15:23:18.503Z,17.40
2018-05-18T15:25:47.691Z,17.50
2018-05-18T15:28:20.351Z,17.70
2018-05-18T15:30:49.672Z,17.70
2018-05-18T15:33:23.314Z,17.90
2018-05-18T15:35:52.615Z,17.70
2018-05-18T15:51:58.379Z,17.30
2018-05-18T15:54:31.446Z,17.00
2018-05-18T16:02:03.855Z,16.70
2018-05-18T16:04:36.020Z,16.80
2018-05-18T16:07:04.575Z,16.50
2018-05-18T16:09:38.924Z,16.50
2018-05-18T16:14:41.317Z,16.60
2018-05-18T16:19:52.235Z,16.60
2018-05-18T16:22:20.783Z,16.60
2018-05-18T16:24:50.698Z,16.60
2018-05-18T16:29:50.383Z,16.70
2018-05-18T16:32:20.134Z,16.80
2018-05-18T16:40:02.919Z,16.80
2018-05-18T16:42:32.842Z,16.70
2018-05-18T16:45:02.511Z,16.70
2018-05-18T16:55:02.075Z,16.50
2018-05-18T16:57:31.783Z,16.50
2018-05-18T17:00:05.366Z,16.60
2018-05-18T17:02:35.903Z,16.50
2018-05-18T17:05:07.803Z,16.50
2018-05-18T17:07:37.501Z,16.50
2018-05-18T17:10:18.987Z,16.40
2018-05-18T17:15:17.362Z,16.40
2018-05-18T17:27:46.614Z,16.50
2018-05-18T17:30:28.327Z,16.40
2018-05-18T17:37:57.355Z,16.30
2018-05-18T17:40:26.679Z,16.40
2018-05-18T17:42:55.622Z,16.50
2018-05-18T17:45:27.468Z,16.30
2018-05-18T17:47:57.802Z,16.30
2018-05-18T17:50:29.962Z,16.20
2018-05-18T17:52:59.683Z,16.40
2018-05-18T17:55:31.709Z,17.10
2018-05-18T18:00:42.275Z,16.10
2018-05-18T18:03:12.974Z,16.10
2018-05-18T18:10:41.923Z,16.20
2018-05-18T18:15:40.733Z,16.00
2018-05-18T18:18:10.787Z,15.90
2018-05-18T18:20:43.652Z,15.90
2018-05-18T18:25:46.113Z,15.70
2018-05-18T18:30:48.825Z,15.50
2018-05-18T18:38:17.998Z,15.40
2018-05-18T18:43:29.483Z,15.40
2018-05-18T18:45:58.818Z,15.30
2018-05-18T18:48:29.165Z,15.30
2018-05-18T18:53:27.288Z,15.30
2018-05-18T18:56:01.551Z,15.20
2018-05-18T19:01:04.088Z,15.00
2018-05-18T19:06:15.180Z,14.80
2018-05-18T19:13:43.503Z,14.60
2018-05-18T19:16:13.041Z,14.50
2018-05-18T19:18:42.001Z,14.50
2018-05-18T19:26:17.364Z,15.10
2018-05-18T19:31:20.124Z,14.20
2018-05-18T19:36:22.339Z,13.90
2018-05-18T19:38:52.643Z,13.80
2018-05-18T19:41:23.679Z,13.70
2018-05-18T19:43:53.968Z,13.70
2018-05-18T19:46:26.554Z,13.60
2018-05-18T19:56:31.596Z,13.40
2018-05-18T19:59:00.489Z,13.30
2018-05-18T20:01:33.551Z,13.30
2018-05-18T20:06:44.511Z,13.10
2018-05-18T20:09:14.985Z,13.10
2018-05-18T20:11:43.964Z,13.10
2018-05-18T20:14:12.963Z,13.10
2018-05-18T20:16:42.970Z,13.00
2018-05-18T20:19:12.297Z,12.90
2018-05-18T20:21:44.707Z,12.80
2018-05-18T20:24:14.981Z,12.70
2018-05-18T20:26:47.609Z,12.70
2018-05-18T20:29:17.310Z,12.60
2018-05-18T20:31:49.330Z,12.60
2018-05-18T20:36:59.997Z,12.50
2018-05-18T20:39:30.041Z,12.50
2018-05-18T20:42:00.259Z,12.40
2018-05-18T20:44:29.203Z,12.30
2018-05-18T20:46:58.488Z,12.60
2018-05-18T20:49:27.998Z,12.10
2018-05-18T20:51:59.388Z,12.00
2018-05-18T20:54:27.867Z,11.90
2018-05-18T20:57:01.748Z,11.80
2018-05-18T20:59:30.650Z,11.80
2018-05-18T21:02:12.712Z,11.80
2018-05-18T21:04:43.161Z,11.60
2018-05-18T21:07:14.327Z,11.70
2018-05-18T21:09:44.624Z,11.70
2018-05-18T21:12:14.777Z,11.60
2018-05-18T21:14:43.429Z,11.60
2018-05-18T21:17:12.881Z,11.60
2018-05-18T21:19:42.210Z,11.50
2018-05-18T21:27:18.001Z,11.50
2018-05-18T21:29:47.710Z,11.40
2018-05-18T21:32:19.806Z,11.40
2018-05-18T21:37:20.710Z,11.30
2018-05-18T21:39:50.683Z,11.20
2018-05-18T21:42:31.615Z,11.20
2018-05-18T21:45:01.686Z,11.20
2018-05-18T21:47:32.022Z,11.10
2018-05-18T21:50:00.513Z,11.10
2018-05-18T21:52:29.042Z,11.00
2018-05-18T21:54:58.370Z,11.00
2018-05-18T21:57:30.696Z,11.00
2018-05-18T21:59:59.203Z,11.00
2018-05-18T22:02:32.739Z,10.90
2018-05-18T22:05:02.774Z,10.90
2018-05-18T22:10:03.397Z,10.80
2018-05-18T22:12:37.138Z,10.80
2018-05-18T22:15:06.144Z,10.80
2018-05-18T22:17:39.658Z,10.80
2018-05-18T22:20:08.530Z,10.80
2018-05-18T22:22:42.129Z,10.80
2018-05-18T22:30:13.924Z,10.70
2018-05-18T22:32:48.019Z,10.70
2018-05-18T22:35:18.164Z,10.70
2018-05-18T22:37:50.627Z,10.60
2018-05-18T22:40:19.141Z,10.60
2018-05-18T22:42:52.035Z,10.60
2018-05-18T22:45:20.879Z,10.80
2018-05-18T22:47:53.755Z,10.60
2018-05-18T22:50:22.690Z,10.50
2018-05-18T22:52:59.877Z,10.50
2018-05-18T22:55:29.921Z,10.40
2018-05-18T22:58:00.832Z,10.50
2018-05-18T23:00:29.603Z,10.40
2018-05-18T23:03:03.344Z,10.40
2018-05-18T23:05:32.265Z,10.40
2018-05-18T23:08:06.062Z,10.30
2018-05-18T23:10:34.606Z,10.30
2018-05-18T23:13:08.014Z,10.30
2018-05-18T23:18:11.681Z,10.20
2018-05-18T23:20:40.707Z,10.20
2018-05-18T23:23:13.830Z,10.20
2018-05-18T23:25:42.319Z,10.20
2018-05-18T23:28:25.327Z,10.10
2018-05-18T23:30:53.958Z,10.00
2018-05-18T23:33:23.622Z,10.00
2018-05-18T23:35:52.251Z,10.00
2018-05-18T23:38:20.882Z,10.00
2018-05-18T23:40:49.623Z,10.00
2018-05-18T23:43:23.139Z,9.90
2018-05-18T23:45:52.419Z,9.90
2018-05-18T23:50:54.642Z,9.90
2018-05-18T23:53:36.483Z,9.80
2018-05-18T23:56:05.287Z,9.80
2018-05-18T23:58:35.376Z,9.80
